Time;durP1;ratioP1;P1;durP2;ratioP2;P2;SDS_P1;SDS_P2;PMS_P1;PMS_P2;Temp;Humidity;BMP_temperature;BMP_pressure;BME280_temperature;BME280_humidity;BME280_pressure;Samples;Min_cycle;Max_cycle;Signal;HPM_P1;HPM_P2
2022/04/12 00:01:24;;;;;;;8.75;4.50;;;;;;;14.16;37.15;101035.97;6310842;22;20060;-67
2022/04/12 00:03:51;;;;;;;7.07;3.67;;;;;;;14.14;37.29;101031.69;6338946;22;20067;-67
2022/04/12 00:06:17;;;;;;;5.13;3.97;;;;;;;14.10;37.32;101031.03;6337951;22;20090;-67
2022/04/12 00:08:44;;;;;;;4.80;3.97;;;;;;;14.06;37.36;101028.72;6338630;22;20023;-67
2022/04/12 00:11:11;;;;;;;6.47;3.67;;;;;;;14.01;37.65;101026.41;6311324;22;20314;-67
2022/04/12 00:13:38;;;;;;;5.03;3.65;;;;;;;13.96;37.64;101018.69;6338407;22;20093;-67
2022/04/12 00:16:05;;;;;;;6.55;4.22;;;;;;;13.94;37.61;101019.78;6338170;22;20018;-66
2022/04/12 00:21:16;;;;;;;4.55;3.58;;;;;;;13.90;37.54;101011.09;6338298;22;20643;-67
2022/04/12 00:23:43;;;;;;;6.57;3.22;;;;;;;13.88;37.79;101001.41;6338809;22;20506;-67
2022/04/12 00:26:10;;;;;;;6.15;3.63;;;;;;;13.86;37.61;100997.97;6311169;22;20018;-67
2022/04/12 00:28:36;;;;;;;5.45;3.90;;;;;;;13.81;37.83;100992.94;6338068;22;20589;-67
2022/04/12 00:31:03;;;;;;;6.18;3.63;;;;;;;13.79;37.85;100992.22;6338765;22;20097;-67
2022/04/12 00:33:30;;;;;;;5.75;3.90;;;;;;;13.77;37.96;100990.63;6338824;22;20011;-66
2022/04/12 00:36:00;;;;;;;6.75;3.75;;;;;;;13.75;38.11;100989.91;6285670;22;20015;-67
2022/04/12 00:38:33;;;;;;;6.25;3.90;;;;;;;13.75;38.08;100979.09;6338997;22;20037;-66
2022/04/12 00:41:00;;;;;;;5.43;3.75;;;;;;;13.73;38.34;100979.22;6338822;22;20035;-66
2022/04/12 00:43:31;;;;;;;5.95;3.95;;;;;;;13.74;38.14;100986.34;6310581;22;20036;-66
2022/04/12 00:46:00;;;;;;;5.45;4.05;;;;;;;13.73;38.33;100992.72;6338098;22;20010;-67
2022/04/12 00:48:29;;;;;;;4.28;3.45;;;;;;;13.73;38.04;100984.63;6338784;22;20018;-65
2022/04/12 00:50:56;;;;;;;4.40;3.58;;;;;;;13.74;38.33;100988.19;6310745;22;20102;-66
2022/04/12 00:53:24;;;;;;;6.75;4.00;;;;;;;13.75;38.24;100985.34;6338637;22;20042;-66
2022/04/12 00:55:51;;;;;;;5.70;3.85;;;;;;;13.76;38.29;100991.63;6338595;22;20391;-66
2022/04/12 00:58:18;;;;;;;7.35;3.97;;;;;;;13.77;38.16;100987.94;6285095;22;20019;-66
2022/04/12 01:00:46;;;;;;;6.35;3.53;;;;;;;13.75;38.28;100982.66;6309938;22;20050;-67
2022/04/12 01:03:13;;;;;;;5.10;4.00;;;;;;;13.75;38.33;100976.41;6338291;22;20015;-66
2022/04/12 01:05:40;;;;;;;4.57;3.47;;;;;;;13.75;38.19;100977.25;6310714;22;20068;-66
2022/04/12 01:08:07;;;;;;;4.45;3.30;;;;;;;13.77;38.33;100972.59;6338216;22;20011;-67
2022/04/12 01:10:34;;;;;;;5.18;3.60;;;;;;;13.78;38.13;100970.75;6310777;22;20076;-66
2022/04/12 01:13:01;;;;;;;5.97;3.90;;;;;;;13.79;38.19;100973.31;6338404;22;20068;-67
2022/04/12 01:15:29;;;;;;;6.88;3.70;;;;;;;13.80;38.45;100969.63;6338601;22;20086;-66
2022/04/12 01:17:57;;;;;;;5.05;3.60;;;;;;;13.80;38.31;100969.63;6337947;22;20432;-66
2022/04/12 01:20:24;;;;;;;5.82;4.28;;;;;;;13.81;38.15;100984.00;6340186;22;20020;-66
2022/04/12 01:23:03;;;;;;;5.90;3.70;;;;;;;13.81;38.22;100984.84;6287257;22;20038;-67
2022/04/12 01:25:30;;;;;;;5.35;4.05;;;;;;;13.83;38.41;100982.03;6287493;22;20102;-67
2022/04/12 01:27:57;;;;;;;3.95;3.47;;;;;;;13.81;38.33;100976.75;6340306;22;20451;-67
2022/04/12 01:30:23;;;;;;;6.38;3.85;;;;;;;13.82;38.38;100974.91;6339209;22;20011;-66
2022/04/12 01:32:50;;;;;;;5.70;3.60;;;;;;;13.80;38.52;100974.19;6339813;22;20270;-67
2022/04/12 01:35:17;;;;;;;5.40;4.10;;;;;;;13.75;38.48;100968.31;6340856;22;20010;-67
2022/04/12 01:37:43;;;;;;;5.35;3.85;;;;;;;13.71;38.44;100962.31;6340349;22;20006;-67
2022/04/12 01:40:10;;;;;;;5.72;4.15;;;;;;;13.65;38.39;100966.38;6344870;22;20018;-67
2022/04/12 01:42:38;;;;;;;7.07;3.90;;;;;;;13.59;38.58;100971.41;6291982;22;20318;-68
2022/04/12 01:45:06;;;;;;;5.53;3.90;;;;;;;13.56;38.73;100980.59;6313274;22;20015;-67
2022/04/12 01:47:33;;;;;;;4.75;4.18;;;;;;;13.54;38.63;100976.31;6340037;22;20323;-67
2022/04/12 01:50:00;;;;;;;5.15;3.75;;;;;;;13.53;38.83;100974.59;6339409;22;20063;-65
2022/04/12 01:52:27;;;;;;;6.28;3.85;;;;;;;13.52;38.77;100981.84;6313084;22;20015;-66
2022/04/12 01:54:53;;;;;;;5.90;3.83;;;;;;;13.51;38.72;100974.72;6339663;22;20054;-66
2022/04/12 01:57:20;;;;;;;4.68;3.90;;;;;;;13.52;38.86;100975.59;6339602;22;20368;-66
2022/04/12 01:59:52;;;;;;;6.10;4.35;;;;;;;13.52;39.01;100978.28;6339814;22;20097;-67
2022/04/12 02:02:18;;;;;;;5.95;4.25;;;;;;;13.50;38.99;100977.56;6339724;22;20014;-67
2022/04/12 02:04:45;;;;;;;6.28;4.00;;;;;;;13.47;38.97;100975.09;6339537;22;20310;-67
2022/04/12 02:07:12;;;;;;;6.43;4.00;;;;;;;13.44;39.01;100969.97;6286758;22;20073;-66
2022/04/12 02:09:39;;;;;;;4.45;4.03;;;;;;;13.42;39.13;100966.53;6339375;22;20022;-67
2022/04/12 02:12:06;;;;;;;5.70;3.95;;;;;;;13.39;39.27;100959.53;6339070;22;20011;-67
2022/04/12 02:14:35;;;;;;;6.78;4.25;;;;;;;13.36;39.35;100955.22;6312079;22;20018;-67
2022/04/12 02:17:02;;;;;;;5.97;4.40;;;;;;;13.33;39.12;100952.75;6286305;22;20019;-67
2022/04/12 02:19:30;;;;;;;5.63;3.90;;;;;;;13.32;39.27;100955.59;6340037;22;20072;-66
2022/04/12 02:21:56;;;;;;;5.68;4.20;;;;;;;13.30;39.31;100958.41;6339009;22;20015;-67
2022/04/12 02:24:23;;;;;;;6.30;4.32;;;;;;;13.28;39.38;100957.69;6340095;22;20025;-67
2022/04/12 02:26:50;;;;;;;7.63;4.70;;;;;;;13.27;39.29;100957.81;6338945;22;20383;-67
2022/04/12 02:29:16;;;;;;;5.57;4.05;;;;;;;13.25;39.59;100960.63;6339377;22;20449;-67
2022/04/12 02:31:43;;;;;;;6.78;4.25;;;;;;;13.24;39.77;100961.59;6285919;22;20025;-67
2022/04/12 02:34:10;;;;;;;5.25;4.22;;;;;;;13.21;39.72;100964.53;6339836;22;20034;-67
2022/04/12 02:36:37;;;;;;;6.25;4.95;;;;;;;13.20;39.58;100960.13;6311924;22;20014;-66
2022/04/12 02:39:04;;;;;;;6.55;4.22;;;;;;;13.17;39.81;100957.69;6339201;22;20028;-67
2022/04/12 02:41:30;;;;;;;7.28;5.03;;;;;;;13.17;39.70;100960.38;6312371;22;20041;-65
2022/04/12 02:43:58;;;;;;;8.07;5.10;;;;;;;13.16;39.79;100945.16;6286241;22;20023;-66
2022/04/12 02:46:25;;;;;;;6.53;4.47;;;;;;;13.14;39.87;100944.41;6339286;22;20015;-67
2022/04/12 02:48:52;;;;;;;7.45;4.70;;;;;;;13.11;39.88;100943.78;6311949;22;20021;-67
2022/04/12 02:51:18;;;;;;;6.50;4.40;;;;;;;13.08;39.89;100949.44;6338841;22;20034;-67
2022/04/12 02:53:45;;;;;;;6.85;4.93;;;;;;;13.02;40.10;100940.84;6338760;22;20011;-67
2022/04/12 02:56:12;;;;;;;7.72;5.13;;;;;;;12.99;40.11;100951.03;6339052;22;20011;-67
2022/04/12 02:58:39;;;;;;;7.72;4.72;;;;;;;12.97;40.00;100942.22;6312180;22;20090;-67
2022/04/12 03:01:06;;;;;;;6.60;4.65;;;;;;;12.99;40.12;100934.84;6339492;22;20093;-67
2022/04/12 03:03:34;;;;;;;7.05;4.70;;;;;;;12.98;40.11;100931.31;6339291;22;20064;-66
2022/04/12 03:06:01;;;;;;;6.47;4.70;;;;;;;12.98;40.24;100920.50;6312045;22;20018;-67
2022/04/12 03:08:28;;;;;;;9.45;4.95;;;;;;;12.98;40.45;100923.22;6311561;22;20097;-67
2022/04/12 03:10:59;;;;;;;7.00;4.88;;;;;;;12.98;40.47;100930.44;6287399;22;20019;-65
2022/04/12 03:13:25;;;;;;;8.25;5.03;;;;;;;12.98;40.32;100920.50;6311661;22;20019;-67
2022/04/12 03:15:52;;;;;;;6.55;4.88;;;;;;;12.98;40.32;100920.50;6339280;22;20078;-66
2022/04/12 03:18:19;;;;;;;9.13;4.82;;;;;;;12.98;40.61;100917.81;6339114;22;20089;-67
2022/04/12 03:20:45;;;;;;;8.70;4.75;;;;;;;12.99;40.44;100919.53;6338652;22;20460;-67
2022/04/12 03:23:12;;;;;;;8.32;4.97;;;;;;;13.01;40.59;100917.56;6311647;22;20015;-67
2022/04/12 03:25:39;;;;;;;10.07;5.32;;;;;;;13.02;40.52;100922.00;6311729;22;20035;-66
2022/04/12 03:28:06;;;;;;;6.70;4.43;;;;;;;13.03;40.50;100915.63;6312116;22;20347;-66
2022/04/12 03:30:33;;;;;;;6.00;4.45;;;;;;;13.05;40.31;100908.25;6338846;22;20044;-67
2022/04/12 03:32:59;;;;;;;6.68;4.43;;;;;;;13.06;40.33;100901.03;6311301;22;20075;-67
2022/04/12 03:35:26;;;;;;;7.28;5.05;;;;;;;13.08;40.49;100906.28;6339187;22;20022;-67
2022/04/12 03:38:00;;;;;;;6.97;4.72;;;;;;;13.07;40.59;100899.19;6338969;22;20089;-66
2022/04/12 03:40:31;;;;;;;7.82;5.32;;;;;;;13.06;40.41;100898.34;6311959;22;20072;-67
2022/04/12 03:43:04;;;;;;;6.45;4.40;;;;;;;13.05;40.65;100902.00;6339806;22;20033;-67
2022/04/12 03:45:32;;;;;;;7.10;5.03;;;;;;;13.05;40.49;100899.31;6338899;22;20090;-67
2022/04/12 03:48:00;;;;;;;9.30;5.05;;;;;;;13.03;40.48;100883.25;6339034;22;20013;-67
2022/04/12 03:50:27;;;;;;;9.43;5.30;;;;;;;13.03;40.63;100877.88;6338942;22;20433;-66
2022/04/12 03:52:54;;;;;;;7.25;5.38;;;;;;;13.03;40.57;100877.00;6338604;22;20440;-66
2022/04/12 03:55:31;;;;;;;7.72;5.40;;;;;;;13.03;40.57;100885.09;6338823;22;20110;-67
2022/04/12 03:58:00;;;;;;;10.40;5.35;;;;;;;13.02;40.74;100889.63;6339215;22;20014;-66
2022/04/12 04:00:28;;;;;;;8.80;4.82;;;;;;;13.01;40.60;100892.44;6338375;22;20057;-67
2022/04/12 04:02:56;;;;;;;5.57;4.40;;;;;;;13.01;40.85;100904.09;6338472;22;20011;-67
2022/04/12 04:05:24;;;;;;;6.30;4.90;;;;;;;13.02;40.74;100910.34;6339028;22;20041;-66
2022/04/12 04:07:50;;;;;;;7.72;5.30;;;;;;;13.03;40.79;100912.06;6311036;22;20040;-66
2022/04/12 04:10:17;;;;;;;7.97;5.40;;;;;;;13.05;40.87;100904.69;6311069;22;20449;-66
2022/04/12 04:12:44;;;;;;;8.75;5.43;;;;;;;13.06;40.78;100901.03;6338719;22;20015;-66
2022/04/12 04:15:14;;;;;;;8.88;5.57;;;;;;;13.01;40.75;100900.53;6338589;22;20021;-67
2022/04/12 04:17:45;;;;;;;6.85;5.35;;;;;;;12.95;40.81;100909.13;6338678;22;20095;-66
2022/04/12 04:20:18;;;;;;;8.60;5.13;;;;;;;12.91;40.88;100908.50;6310519;22;20114;-67
2022/04/12 04:22:45;;;;;;;8.13;5.28;;;;;;;12.86;41.07;100907.16;6339239;22;20010;-66
2022/04/12 04:25:14;;;;;;;7.78;5.35;;;;;;;12.84;41.13;100895.66;6338957;22;20011;-67
2022/04/12 04:27:41;;;;;;;8.60;5.15;;;;;;;12.81;41.03;100896.75;6338500;22;20015;-66
2022/04/12 04:30:10;;;;;;;9.82;5.70;;;;;;;12.79;41.09;100890.63;6311332;22;20015;-67
2022/04/12 04:32:37;;;;;;;9.38;5.80;;;;;;;12.79;41.23;100892.47;6310252;22;20034;-67
2022/04/12 04:35:05;;;;;;;7.03;5.47;;;;;;;12.76;41.22;100885.47;6338632;22;20017;-67
2022/04/12 04:37:32;;;;;;;7.50;5.45;;;;;;;12.74;41.22;100882.03;6311789;22;20021;-67
2022/04/12 04:39:58;;;;;;;6.97;5.30;;;;;;;12.75;41.24;100877.50;6310683;22;20049;-67
2022/04/12 04:42:27;;;;;;;9.07;5.55;;;;;;;12.76;41.42;100884.63;6339231;22;20043;-66
2022/04/12 04:44:53;;;;;;;8.73;5.47;;;;;;;12.76;41.41;100893.56;6311474;22;20015;-67
2022/04/12 04:47:20;;;;;;;8.07;5.47;;;;;;;12.76;41.44;100898.94;6338190;22;20072;-66
2022/04/12 04:49:47;;;;;;;11.05;5.72;;;;;;;12.77;41.48;100899.81;6284650;22;20015;-66
2022/04/12 04:52:14;;;;;;;8.98;5.60;;;;;;;12.78;41.40;100897.00;6339373;22;20018;-67
2022/04/12 04:54:40;;;;;;;7.97;5.28;;;;;;;12.78;41.40;100901.53;6340652;22;20011;-66
2022/04/12 04:57:07;;;;;;;8.18;5.43;;;;;;;12.78;41.41;100912.31;6312739;22;20015;-67
2022/04/12 04:59:34;;;;;;;7.65;6.47;;;;;;;12.77;41.45;100908.75;6339911;22;20375;-67
2022/04/12 05:02:00;;;;;;;8.25;5.53;;;;;;;12.77;41.41;100913.28;6340461;22;20010;-67
2022/04/12 05:04:27;;;;;;;9.90;5.63;;;;;;;12.78;41.51;100915.00;6312836;22;20348;-67
2022/04/12 05:06:54;;;;;;;8.88;6.05;;;;;;;12.79;41.61;100897.84;6339194;22;20090;-66
2022/04/12 05:09:20;;;;;;;6.57;5.13;;;;;;;12.77;41.45;100897.97;6340562;22;20085;-66
2022/04/12 05:11:47;;;;;;;9.20;5.15;;;;;;;12.78;41.33;100904.22;6339901;22;20116;-67
2022/04/12 05:14:14;;;;;;;7.55;5.57;;;;;;;12.78;41.47;100909.59;6340155;22;20018;-65
2022/04/12 05:16:41;;;;;;;8.80;5.65;;;;;;;12.78;41.76;100896.13;6340339;22;20014;-67
2022/04/12 05:19:07;;;;;;;8.35;5.80;;;;;;;12.77;41.69;100891.72;6340474;22;20445;-66
2022/04/12 05:21:34;;;;;;;8.75;5.80;;;;;;;12.77;41.75;100891.72;6339483;22;20023;-67
2022/04/12 05:24:04;;;;;;;7.72;5.43;;;;;;;12.77;41.44;100911.44;6313026;22;20073;-66
2022/04/12 05:26:31;;;;;;;8.55;5.80;;;;;;;12.78;41.77;100909.59;6339957;22;20506;-67
2022/04/12 05:28:58;;;;;;;7.88;5.13;;;;;;;12.79;41.75;100927.50;6311987;22;20045;-67
2022/04/12 05:31:24;;;;;;;7.35;5.18;;;;;;;12.79;41.74;100917.56;6340120;22;20018;-66
2022/04/12 05:33:58;;;;;;;7.90;6.07;;;;;;;12.81;41.76;100925.53;6339485;22;20019;-67
2022/04/12 05:36:24;;;;;;;9.13;6.28;;;;;;;12.83;41.87;100928.97;6286853;22;20037;-66
2022/04/12 05:38:51;;;;;;;8.23;5.82;;;;;;;12.85;42.02;100929.69;6312106;22;20031;-67
2022/04/12 05:41:18;;;;;;;7.88;5.40;;;;;;;12.86;42.01;100934.97;6339618;22;20068;-67
2022/04/12 05:43:44;;;;;;;8.30;6.25;;;;;;;12.89;42.03;100931.19;6312019;22;20022;-67
2022/04/12 05:46:11;;;;;;;10.38;5.70;;;;;;;12.92;41.95;100928.25;6339518;22;20098;-68
2022/04/12 05:48:37;;;;;;;9.48;5.97;;;;;;;12.96;42.35;100921.63;6312435;22;20387;-67
2022/04/12 05:51:04;;;;;;;8.02;5.82;;;;;;;12.99;42.30;100919.53;6339275;22;20019;-67
2022/04/12 05:53:31;;;;;;;9.38;6.00;;;;;;;13.03;42.43;100921.00;6312559;22;20007;-66
2022/04/12 05:55:58;;;;;;;10.77;6.00;;;;;;;13.07;42.20;100921.63;6285436;22;20015;-67
2022/04/12 05:58:25;;;;;;;9.07;5.72;;;;;;;13.10;42.20;100913.28;6285978;22;20019;-67
2022/04/12 06:00:51;;;;;;;8.77;6.15;;;;;;;13.14;42.10;100922.84;6339595;22;20014;-67
2022/04/12 06:03:18;;;;;;;7.68;5.35;;;;;;;13.17;42.23;100925.31;6339383;22;20089;-67
2022/04/12 06:05:49;;;;;;;9.32;5.80;;;;;;;13.20;42.27;100916.13;6311812;22;20014;-68
2022/04/12 06:08:16;;;;;;;8.68;6.00;;;;;;;13.24;42.19;100926.53;6340169;22;20026;-67
2022/04/12 06:10:42;;;;;;;10.10;6.30;;;;;;;13.26;42.27;100916.47;6338984;22;20433;-67
2022/04/12 06:13:09;;;;;;;9.73;6.65;;;;;;;13.29;42.36;100909.97;6313157;22;20435;-66
2022/04/12 06:15:36;;;;;;;9.25;6.32;;;;;;;13.31;42.28;100911.56;6340253;22;20068;-66
2022/04/12 06:18:06;;;;;;;8.32;5.78;;;;;;;13.34;42.51;100921.25;6339861;22;20451;-66
2022/04/12 06:20:33;;;;;;;9.32;6.18;;;;;;;13.36;42.52;100920.16;6340098;22;20014;-66
2022/04/12 06:22:59;;;;;;;9.50;6.00;;;;;;;13.40;42.39;100922.63;6313116;22;20386;-66
2022/04/12 06:25:26;;;;;;;8.57;6.40;;;;;;;13.44;42.43;100921.41;6340110;22;20015;-65
2022/04/12 06:27:53;;;;;;;10.32;6.32;;;;;;;13.49;42.47;100925.44;6340185;22;20053;-67
2022/04/12 06:30:22;;;;;;;10.18;6.80;;;;;;;13.56;42.57;100933.88;6312193;22;20349;-66
2022/04/12 06:32:49;;;;;;;8.43;6.25;;;;;;;13.61;42.56;100929.81;6340024;22;20015;-66
2022/04/12 06:35:16;;;;;;;10.85;6.85;;;;;;;13.70;42.61;100919.25;6340407;22;20015;-66
2022/04/12 06:37:46;;;;;;;8.45;5.70;;;;;;;13.77;42.48;100921.31;6340133;22;20019;-67
2022/04/12 06:40:15;;;;;;;8.93;6.05;;;;;;;13.89;42.53;100922.13;6312883;22;20019;-66
2022/04/12 06:42:42;;;;;;;19.00;6.53;;;;;;;14.02;42.80;100917.41;6339025;22;20093;-66
2022/04/12 06:45:11;;;;;;;9.23;6.43;;;;;;;14.14;42.80;100912.84;6312266;22;20025;-66
2022/04/12 06:47:39;;;;;;;8.23;6.07;;;;;;;14.28;42.58;100916.06;6312529;22;20017;-65
2022/04/12 06:50:06;;;;;;;8.98;5.95;;;;;;;14.42;42.50;100917.63;6339370;22;20399;-65
2022/04/12 06:52:33;;;;;;;11.02;5.93;;;;;;;14.55;42.60;100915.56;6339420;22;20456;-66
2022/04/12 06:55:00;;;;;;;9.02;5.40;;;;;;;14.68;42.27;100930.72;6339803;22;20079;-66
2022/04/12 06:57:34;;;;;;;9.80;5.60;;;;;;;14.80;42.30;100929.66;6340072;22;20328;-66
2022/04/12 07:00:04;;;;;;;10.82;6.13;;;;;;;14.94;42.14;100927.50;6339651;22;20094;-66
2022/04/12 07:02:31;;;;;;;8.82;6.43;;;;;;;15.07;42.38;100926.41;6339892;22;20019;-66
2022/04/12 07:04:58;;;;;;;8.82;6.55;;;;;;;15.18;42.19;100923.59;6311795;22;20011;-66
2022/04/12 07:07:24;;;;;;;9.18;6.20;;;;;;;15.32;42.05;100919.66;6339555;22;20089;-65
2022/04/12 07:09:51;;;;;;;7.80;6.00;;;;;;;15.42;42.15;100913.28;6339573;22;20049;-66
2022/04/12 07:12:17;;;;;;;7.72;5.43;;;;;;;15.50;41.69;100905.31;6338884;22;20445;-65
2022/04/12 07:14:44;;;;;;;15.82;6.45;;;;;;;15.61;41.90;100898.13;6339629;22;20010;-66
2022/04/12 07:17:10;;;;;;;12.57;6.10;;;;;;;15.72;41.83;100901.56;6339097;22;20041;-66
2022/04/12 07:19:37;;;;;;;8.15;5.18;;;;;;;15.85;41.51;100902.16;6339522;22;20036;-66
2022/04/12 07:22:04;;;;;;;7.80;5.72;;;;;;;16.02;41.42;100902.44;6339399;22;20411;-66
2022/04/12 07:24:31;;;;;;;8.38;5.50;;;;;;;16.15;41.54;100889.47;6339843;22;20011;-66
2022/04/12 07:26:58;;;;;;;8.35;6.03;;;;;;;16.31;41.23;100897.84;6339630;22;20021;-66
2022/04/12 07:29:25;;;;;;;7.03;5.00;;;;;;;16.48;41.12;100889.00;6339505;22;20097;-65
2022/04/12 07:31:51;;;;;;;8.82;5.18;;;;;;;16.71;41.37;100888.69;6339745;22;20007;-66
2022/04/12 07:34:18;;;;;;;9.95;5.30;;;;;;;16.93;40.86;100890.19;6339454;22;20314;-66
2022/04/12 07:36:47;;;;;;;9.23;5.10;;;;;;;17.12;41.03;100882.00;6339097;22;20038;-66
2022/04/12 07:39:15;;;;;;;7.25;4.72;;;;;;;17.30;40.43;100884.75;6339369;22;20021;-66
2022/04/12 07:41:42;;;;;;;7.60;4.88;;;;;;;17.47;40.74;100886.66;6311935;22;20015;-66
2022/04/12 07:44:09;;;;;;;6.47;4.65;;;;;;;17.63;40.21;100894.13;6339388;22;20068;-66
2022/04/12 07:46:35;;;;;;;6.40;5.00;;;;;;;17.75;39.97;100892.91;6339655;22;20088;-66
2022/04/12 07:49:02;;;;;;;7.10;4.88;;;;;;;17.90;39.60;100890.56;6338077;22;20483;-67
2022/04/12 07:51:29;;;;;;;7.38;4.90;;;;;;;18.04;39.57;100876.41;6338987;22;20097;-66
2022/04/12 07:53:55;;;;;;;5.50;4.43;;;;;;;18.13;39.26;100878.19;6311994;22;20015;-66
2022/04/12 07:56:22;;;;;;;8.80;4.38;;;;;;;18.24;39.54;100885.25;6338919;22;20011;-66
2022/04/12 07:58:49;;;;;;;6.70;4.50;;;;;;;18.35;39.19;100888.56;6339389;22;20021;-66
2022/04/12 08:01:15;;;;;;;6.15;4.43;;;;;;;18.45;38.98;100893.91;6338807;22;20011;-66
2022/04/12 08:03:42;;;;;;;6.60;4.70;;;;;;;18.56;39.05;100887.34;6311454;22;20035;-67
2022/04/12 08:06:08;;;;;;;5.57;4.55;;;;;;;18.69;39.17;100888.69;6339507;22;20010;-67
2022/04/12 08:08:35;;;;;;;6.03;4.35;;;;;;;18.82;38.55;100887.41;6311548;22;20015;-67
2022/04/12 08:11:02;;;;;;;9.38;4.38;;;;;;;18.94;38.45;100886.13;6310550;22;20349;-67
2022/04/12 08:13:31;;;;;;;7.43;4.80;;;;;;;19.10;38.62;100886.19;6339530;22;20015;-67
2022/04/12 08:15:58;;;;;;;7.78;4.38;;;;;;;19.25;38.82;100878.25;6339012;22;20021;-67
2022/04/12 08:18:25;;;;;;;11.20;5.00;;;;;;;19.37;38.07;100885.13;6339223;22;20015;-67
2022/04/12 08:20:53;;;;;;;6.13;4.93;;;;;;;19.47;37.87;100885.84;6311392;22;20441;-67
2022/04/12 08:23:21;;;;;;;6.22;4.32;;;;;;;19.58;38.18;100882.84;6339153;22;20018;-66
2022/04/12 08:25:49;;;;;;;7.70;4.65;;;;;;;19.70;37.85;100888.84;6339034;22;20021;-67
2022/04/12 08:28:17;;;;;;;6.90;4.50;;;;;;;19.78;37.78;100893.44;6338888;22;20348;-66
2022/04/12 08:30:49;;;;;;;9.55;4.60;;;;;;;19.90;37.93;100894.81;6339657;22;20011;-66
2022/04/12 08:33:16;;;;;;;8.75;5.00;;;;;;;19.99;37.66;100891.94;6339203;22;20037;-67
2022/04/12 08:35:43;;;;;;;9.48;4.85;;;;;;;20.04;37.38;100894.16;6338902;22;20015;-67
2022/04/12 08:38:10;;;;;;;7.35;4.78;;;;;;;20.09;37.14;100894.53;6343952;22;20027;-66
2022/04/12 08:40:39;;;;;;;7.40;4.55;;;;;;;20.18;36.94;100885.34;6339739;22;20345;-67
2022/04/12 08:43:07;;;;;;;6.80;4.60;;;;;;;20.28;37.08;100886.00;6339447;22;20042;-67
2022/04/12 08:45:36;;;;;;;6.75;4.05;;;;;;;20.39;37.22;100881.25;6311949;22;20026;-67
2022/04/12 08:48:05;;;;;;;5.63;3.20;;;;;;;20.51;36.88;100885.34;6337739;22;20072;-67
2022/04/12 08:50:32;;;;;;;5.32;3.65;;;;;;;20.59;36.53;100886.19;6338630;22;20015;-67
2022/04/12 08:53:00;;;;;;;4.50;3.35;;;;;;;20.66;36.59;100885.50;6339077;22;20007;-67
2022/04/12 08:55:27;;;;;;;7.22;3.55;;;;;;;20.73;36.69;100878.31;6338929;22;20018;-66
2022/04/12 08:57:54;;;;;;;6.65;3.78;;;;;;;20.82;36.51;100877.28;6338906;22;20068;-67
2022/04/12 09:00:20;;;;;;;8.60;4.00;;;;;;;20.99;36.76;100867.19;6338872;22;20083;-67
2022/04/12 09:02:58;;;;;;;5.93;3.75;;;;;;;21.15;36.08;100867.13;6338777;22;20463;-67
2022/04/12 09:05:27;;;;;;;5.72;3.45;;;;;;;21.27;36.25;100867.59;6339282;22;20007;-66
2022/04/12 09:07:54;;;;;;;5.70;3.22;;;;;;;21.38;35.90;100859.00;6339251;22;20076;-67
2022/04/12 09:10:32;;;;;;;8.75;3.63;;;;;;;21.48;35.79;100857.75;6338740;22;20094;-67
2022/04/12 09:13:14;;;;;;;7.57;3.53;;;;;;;21.60;35.77;100854.66;6338199;22;20379;-68
2022/04/12 09:15:43;;;;;;;7.60;3.60;;;;;;;21.72;35.78;100845.84;6339033;22;20082;-66
2022/04/12 09:18:31;;;;;;;8.95;3.95;;;;;;;21.80;35.51;100855.88;6338889;22;20452;-66
2022/04/12 09:21:20;;;;;;;8.75;3.95;;;;;;;21.87;35.51;100856.84;6338678;22;20007;-68
2022/04/12 09:23:50;;;;;;;9.13;3.83;;;;;;;21.96;35.44;100853.03;6311156;22;20076;-66
2022/04/12 09:26:29;;;;;;;5.88;3.67;;;;;;;22.05;34.84;100848.38;6285303;22;20018;-67
2022/04/12 09:28:57;;;;;;;9.57;3.40;;;;;;;22.15;35.22;100849.81;6338192;22;20068;-67
2022/04/12 09:31:24;;;;;;;7.22;3.75;;;;;;;22.26;34.79;100851.25;6338869;22;20023;-67
2022/04/12 09:33:53;;;;;;;6.55;3.55;;;;;;;22.34;34.69;100856.69;6311313;22;20106;-67
2022/04/12 09:36:20;;;;;;;4.97;4.07;;;;;;;22.46;35.10;100855.19;6338669;22;20022;-67
2022/04/12 09:38:54;;;;;;;6.57;4.25;;;;;;;22.62;34.80;100850.59;6338707;22;20372;-67
2022/04/12 09:41:26;;;;;;;4.47;3.60;;;;;;;22.70;34.76;100836.81;6340565;22;20502;-67
2022/04/12 09:44:07;;;;;;;7.22;3.83;;;;;;;22.78;34.49;100836.72;6312888;22;20337;-67
2022/04/12 09:46:35;;;;;;;8.27;3.35;;;;;;;22.88;34.37;100839.22;6340800;22;20068;-67
2022/04/12 09:49:02;;;;;;;5.47;3.40;;;;;;;22.99;34.46;100833.25;6340389;22;20019;-68
2022/04/12 09:51:29;;;;;;;7.10;3.65;;;;;;;23.13;34.64;100829.69;6340460;22;20017;-67
2022/04/12 09:53:56;;;;;;;6.93;4.45;;;;;;;23.16;34.06;100821.06;6340353;22;20022;-67
2022/04/12 09:56:30;;;;;;;5.53;3.20;;;;;;;23.21;33.95;100821.34;6340341;22;20345;-68
2022/04/12 09:59:02;;;;;;;5.68;3.40;;;;;;;23.27;33.52;100811.50;6340287;22;20014;-67
2022/04/12 10:01:31;;;;;;;5.50;3.65;;;;;;;23.31;33.44;100812.81;6340154;22;20015;-68
2022/04/12 10:03:59;;;;;;;4.88;3.17;;;;;;;23.32;33.17;100815.38;6340352;22;20089;-67
2022/04/12 10:06:28;;;;;;;7.95;3.97;;;;;;;23.35;32.88;100815.00;6340125;22;20445;-68
2022/04/12 10:08:57;;;;;;;6.35;3.58;;;;;;;23.36;32.80;100813.94;6287080;22;20553;-67
2022/04/12 10:11:24;;;;;;;10.50;3.60;;;;;;;23.42;32.99;100824.13;6312674;22;20030;-67
2022/04/12 10:13:51;;;;;;;6.50;3.42;;;;;;;23.49;33.24;100835.19;6340006;22;20512;-68
2022/04/12 10:16:22;;;;;;;6.55;3.42;;;;;;;23.53;32.76;100833.75;6312220;22;20017;-68
2022/04/12 10:18:50;;;;;;;7.38;3.88;;;;;;;23.53;32.84;100827.41;6313053;22;20033;-67
2022/04/12 10:21:19;;;;;;;5.72;3.67;;;;;;;23.53;32.87;100822.78;6312612;22;20014;-68
2022/04/12 10:23:51;;;;;;;6.55;3.63;;;;;;;23.54;32.93;100824.47;6340069;22;20015;-67
2022/04/12 10:26:20;;;;;;;10.32;4.07;;;;;;;23.58;32.84;100819.50;6340191;22;20374;-67
2022/04/12 10:28:51;;;;;;;6.32;4.20;;;;;;;23.74;33.42;100811.00;6339601;22;20007;-68
2022/04/12 10:31:20;;;;;;;8.15;3.50;;;;;;;23.98;33.57;100809.78;6339643;22;20014;-68
2022/04/12 10:34:14;;;;;;;5.35;3.78;;;;;;;24.22;33.28;100809.38;6340063;22;20017;-68
2022/04/12 10:37:05;;;;;;;6.93;3.40;;;;;;;24.33;32.70;100802.50;6340162;22;20014;-67
2022/04/12 10:40:01;;;;;;;5.55;3.67;;;;;;;24.34;32.64;100804.22;6339176;22;20007;-68
2022/04/12 10:42:31;;;;;;;6.28;3.45;;;;;;;24.26;32.28;100798.84;6340154;22;20014;-68
2022/04/12 10:45:01;;;;;;;6.82;3.67;;;;;;;24.23;32.38;100801.97;6313124;22;20007;-68
2022/04/12 10:47:36;;;;;;;6.32;3.60;;;;;;;24.29;32.12;100791.09;6339276;22;20503;-68
2022/04/12 10:50:04;;;;;;;;;;;;;;;24.39;32.47;100794.31;6339803;22;20021;-67
2022/04/12 10:52:32;;;;;;;6.47;3.88;;;;;;;24.54;32.25;100780.50;6310600;22;19950;-67
2022/04/12 10:55:03;;;;;;;7.78;3.58;;;;;;;24.59;32.18;100775.25;6339620;22;20007;-67
2022/04/12 10:57:30;;;;;;;5.90;3.40;;;;;;;24.61;31.83;100769.56;6311054;22;20019;-68
2022/04/12 11:00:08;;;;;;;7.93;3.97;;;;;;;24.56;31.66;100761.09;6311386;22;20077;-67
2022/04/12 11:02:43;;;;;;;8.73;3.40;;;;;;;24.60;31.71;100765.97;6312269;22;20159;-67
2022/04/12 11:05:32;;;;;;;7.47;3.50;;;;;;;24.69;31.70;100772.16;6339582;22;20445;-67
2022/04/12 11:07:59;;;;;;;9.80;3.78;;;;;;;24.80;31.68;100774.31;6339203;22;20085;-68
2022/04/12 11:10:26;;;;;;;4.97;3.15;;;;;;;24.86;31.67;100769.91;6312163;22;20035;-68
2022/04/12 11:13:07;;;;;;;8.82;3.45;;;;;;;24.84;31.50;100777.50;6339415;22;20018;-68
2022/04/12 11:15:36;;;;;;;7.90;3.53;;;;;;;24.84;31.31;100761.03;6311650;22;20046;-68
2022/04/12 11:18:13;;;;;;;4.55;3.00;;;;;;;24.82;31.20;100754.88;6339540;22;20022;-68
2022/04/12 11:20:46;;;;;;;7.55;3.40;;;;;;;24.78;31.11;100750.84;6339542;22;20341;-68
2022/04/12 11:23:14;;;;;;;8.00;3.35;;;;;;;24.70;31.37;100757.38;6339262;22;20395;-67
2022/04/12 11:25:48;;;;;;;4.80;2.88;;;;;;;24.68;31.50;100743.84;6339040;22;20050;-67
2022/04/12 11:28:20;;;;;;;8.48;3.38;;;;;;;24.73;31.58;100759.72;6339369;22;20080;-67
2022/04/12 11:30:56;;;;;;;7.18;3.15;;;;;;;24.75;31.54;100762.25;6285662;22;20060;-67
2022/04/12 11:33:28;;;;;;;7.15;3.00;;;;;;;24.79;31.29;100777.28;6339080;22;20018;-66